createdAt,value
2018-02-22T00:00:54.780Z,41.28
2018-02-22T00:03:23.085Z,37.33
2018-02-22T00:05:51.364Z,39.27
2018-02-22T00:08:20.611Z,40.75
2018-02-22T00:10:48.888Z,39.33
2018-02-22T00:13:17.150Z,37.30
2018-02-22T00:15:45.451Z,36.47
2018-02-22T00:18:13.768Z,39.53
2018-02-22T00:20:42.096Z,34.93
2018-02-22T00:23:10.414Z,36.90
2018-02-22T00:25:38.706Z,34.53
2018-02-22T00:28:07.019Z,34.77
2018-02-22T00:30:35.280Z,35.63
2018-02-22T00:33:03.592Z,37.53
2018-02-22T00:35:31.883Z,37.67
2018-02-22T00:38:00.199Z,34.20
2018-02-22T00:40:28.492Z,39.80
2018-02-22T00:42:56.746Z,35.73
2018-02-22T00:45:25.074Z,36.40
2018-02-22T00:47:53.388Z,37.30
2018-02-22T00:50:21.683Z,34.70
2018-02-22T00:52:49.948Z,38.60
2018-02-22T00:55:18.240Z,34.97
2018-02-22T00:57:46.511Z,34.20
2018-02-22T01:00:14.809Z,34.22
2018-02-22T01:02:43.079Z,35.40
2018-02-22T01:05:11.426Z,34.07
2018-02-22T01:07:39.680Z,33.30
2018-02-22T01:10:07.992Z,35.22
2018-02-22T01:12:36.261Z,35.67
2018-02-22T01:15:04.597Z,29.67
2018-02-22T01:17:32.831Z,37.30
2018-02-22T01:20:01.099Z,37.47
2018-02-22T01:22:29.395Z,36.20
2018-02-22T01:24:57.687Z,33.30
2018-02-22T01:27:25.988Z,34.22
2018-02-22T01:29:54.287Z,32.70
2018-02-22T01:32:22.559Z,33.77
2018-02-22T01:34:50.831Z,34.80
2018-02-22T01:37:19.126Z,36.00
2018-02-22T01:39:47.389Z,37.07
2018-02-22T01:42:15.687Z,33.42
2018-02-22T01:44:43.990Z,34.70
2018-02-22T01:47:12.264Z,37.20
2018-02-22T01:49:40.563Z,32.07
2018-02-22T01:52:08.830Z,30.75
2018-02-22T01:54:37.143Z,35.17
2018-02-22T01:57:05.394Z,35.50
2018-02-22T01:59:33.741Z,35.03
2018-02-22T02:02:01.989Z,36.42
2018-02-22T02:04:30.311Z,32.30
2018-02-22T02:06:58.616Z,33.70
2018-02-22T02:09:26.901Z,33.30
2018-02-22T02:11:55.208Z,34.67
2018-02-22T02:14:23.488Z,33.00
2018-02-22T02:16:51.795Z,25.63
2018-02-22T02:19:20.068Z,29.73
2018-02-22T02:21:48.395Z,33.20
2018-02-22T02:24:16.667Z,30.12
2018-02-22T02:26:44.956Z,33.67
2018-02-22T02:29:13.230Z,32.57
2018-02-22T02:31:41.912Z,29.87
2018-02-22T02:34:10.229Z,32.83
2018-02-22T02:36:38.494Z,28.13
2018-02-22T02:39:06.819Z,26.83
2018-02-22T02:41:35.103Z,28.23
2018-02-22T02:44:03.396Z,25.03
2018-02-22T02:46:31.674Z,26.17
2018-02-22T02:48:59.978Z,27.87
2018-02-22T02:51:28.256Z,27.17
2018-02-22T02:53:56.545Z,26.50
2018-02-22T02:56:24.839Z,26.57
2018-02-22T02:58:53.142Z,25.57
2018-02-22T03:01:21.427Z,24.27
2018-02-22T03:03:49.717Z,28.33
2018-02-22T03:06:17.991Z,26.80
2018-02-22T03:08:46.263Z,24.47
2018-02-22T03:11:14.551Z,24.37
2018-02-22T03:13:43.140Z,22.70
2018-02-22T03:16:11.462Z,25.10
2018-02-22T03:18:39.714Z,27.17
2018-02-22T03:21:08.048Z,25.47
2018-02-22T03:23:36.332Z,26.30
2018-02-22T03:26:04.951Z,24.98
2018-02-22T03:28:33.280Z,25.00
2018-02-22T03:31:01.554Z,22.77
2018-02-22T03:33:29.844Z,23.90
2018-02-22T03:35:58.123Z,23.50
2018-02-22T03:38:26.436Z,24.10
2018-02-22T03:40:54.714Z,21.80
2018-02-22T03:43:23.039Z,22.92
2018-02-22T03:45:51.321Z,25.13
2018-02-22T03:48:19.635Z,24.10
2018-02-22T03:50:47.910Z,22.58
2018-02-22T03:53:16.222Z,25.10
2018-02-22T03:55:44.503Z,29.63
2018-02-22T03:58:12.886Z,21.65
2018-02-22T04:00:41.149Z,24.90
2018-02-22T04:03:09.412Z,21.67
2018-02-22T04:05:37.739Z,24.03
2018-02-22T04:08:06.001Z,23.70
2018-02-22T04:10:34.299Z,18.47
2018-02-22T04:13:02.616Z,22.50
2018-02-22T04:15:30.901Z,18.87
2018-02-22T04:17:59.199Z,27.00
2018-02-22T04:20:27.471Z,22.43
2018-02-22T04:22:55.793Z,22.90
2018-02-22T04:25:24.094Z,18.67
2018-02-22T04:27:52.417Z,21.20
2018-02-22T04:30:20.796Z,23.70
2018-02-22T04:32:49.081Z,21.20
2018-02-22T04:35:17.379Z,20.33
2018-02-22T04:37:45.667Z,22.40
2018-02-22T04:40:13.947Z,21.00
2018-02-22T04:42:42.295Z,19.53
2018-02-22T04:45:10.597Z,22.03
2018-02-22T04:47:38.840Z,19.52
2018-02-22T04:50:07.152Z,23.13
2018-02-22T04:52:35.404Z,20.83
2018-02-22T04:55:04.627Z,20.02
2018-02-22T04:57:32.901Z,16.40
2018-02-22T05:00:01.222Z,18.20
2018-02-22T05:02:30.419Z,23.50
2018-02-22T05:04:58.717Z,18.40
2018-02-22T05:07:26.997Z,21.20
2018-02-22T05:09:55.291Z,20.27
2018-02-22T05:12:23.581Z,21.40
2018-02-22T05:14:51.871Z,19.40
2018-02-22T05:17:20.164Z,20.60
2018-02-22T05:19:48.475Z,22.10
2018-02-22T05:22:16.763Z,20.53
2018-02-22T05:24:45.033Z,21.60
2018-02-22T05:27:13.347Z,20.02
2018-02-22T05:29:41.632Z,20.30
2018-02-22T05:32:10.126Z,20.03
2018-02-22T05:34:38.405Z,18.37
2018-02-22T05:37:06.681Z,19.17
2018-02-22T05:39:34.967Z,18.33
2018-02-22T05:42:03.238Z,22.30
2018-02-22T05:44:31.544Z,17.40
2018-02-22T05:46:59.816Z,17.93
2018-02-22T05:49:28.121Z,12.47
2018-02-22T05:51:56.399Z,19.13
2018-02-22T05:54:24.711Z,22.53
2018-02-22T05:56:53.004Z,17.20
2018-02-22T05:59:21.593Z,16.80
2018-02-22T06:01:49.851Z,18.37
2018-02-22T06:04:18.135Z,16.90
2018-02-22T06:06:46.543Z,16.23
2018-02-22T06:09:14.810Z,54.40
2018-02-22T06:11:43.097Z,16.60
2018-02-22T06:14:11.400Z,17.63
2018-02-22T06:16:39.651Z,14.93
2018-02-22T06:19:07.913Z,16.30
2018-02-22T06:21:36.237Z,15.47
2018-02-22T06:24:05.096Z,19.20
2018-02-22T06:26:33.389Z,18.13
2018-02-22T06:29:01.656Z,14.50
2018-02-22T06:31:29.927Z,12.73
2018-02-22T06:33:58.224Z,14.73
2018-02-22T06:36:26.514Z,13.35
2018-02-22T06:38:54.829Z,13.20
2018-02-22T06:41:23.100Z,14.32
2018-02-22T06:43:51.442Z,14.47
2018-02-22T06:46:19.687Z,17.23
2018-02-22T06:48:47.994Z,14.70
2018-02-22T06:51:16.296Z,14.23
2018-02-22T06:53:44.573Z,14.00
2018-02-22T06:56:13.083Z,13.70
2018-02-22T06:58:41.357Z,22.27
2018-02-22T07:01:10.569Z,17.20
2018-02-22T07:03:38.816Z,17.33
2018-02-22T07:06:07.119Z,14.80
2018-02-22T07:08:35.409Z,15.60
2018-02-22T07:11:04.347Z,15.52
2018-02-22T07:13:32.606Z,14.13
2018-02-22T07:16:00.923Z,14.33
2018-02-22T07:18:29.212Z,18.60
2018-02-22T07:20:57.463Z,15.30
2018-02-22T07:23:27.078Z,13.80
2018-02-22T07:25:55.382Z,14.20
2018-02-22T07:28:23.693Z,17.95
2018-02-22T07:30:51.971Z,16.23
2018-02-22T07:33:20.303Z,13.30
2018-02-22T07:35:49.414Z,13.13
2018-02-22T07:38:17.675Z,17.57
2018-02-22T07:40:45.977Z,15.67
2018-02-22T07:43:14.268Z,17.27
2018-02-22T07:45:42.579Z,14.13
2018-02-22T07:48:10.874Z,13.20
2018-02-22T07:50:39.136Z,11.60
2018-02-22T07:53:07.497Z,13.57
2018-02-22T07:55:35.782Z,12.47
2018-02-22T07:58:05.004Z,15.52
2018-02-22T08:00:33.257Z,15.17
2018-02-22T08:03:01.546Z,16.87
2018-02-22T08:05:29.821Z,10.37
2018-02-22T08:07:58.166Z,12.97
2018-02-22T08:10:26.421Z,10.87
2018-02-22T08:12:54.730Z,11.57
2018-02-22T08:15:23.358Z,12.40
2018-02-22T08:17:51.672Z,12.80
2018-02-22T08:20:19.998Z,13.20
2018-02-22T08:22:48.308Z,13.10
2018-02-22T08:25:16.672Z,10.25
2018-02-22T08:27:45.003Z,9.85
2018-02-22T08:30:13.335Z,10.60
2018-02-22T08:32:41.581Z,11.67
2018-02-22T08:35:09.848Z,13.98
2018-02-22T08:37:38.160Z,12.37
2018-02-22T08:40:06.528Z,11.97
2018-02-22T08:42:34.848Z,11.60
2018-02-22T08:45:03.119Z,12.23
2018-02-22T08:47:31.443Z,9.77
2018-02-22T08:49:59.712Z,10.37
2018-02-22T08:52:27.992Z,8.93
2018-02-22T08:54:56.287Z,18.00
2018-02-22T08:57:24.549Z,10.60
2018-02-22T08:59:52.842Z,8.50
2018-02-22T09:02:21.116Z,11.10
2018-02-22T09:04:49.416Z,10.47
2018-02-22T09:07:18.316Z,15.83
2018-02-22T09:09:46.620Z,12.30
2018-02-22T09:12:14.883Z,10.07
2018-02-22T09:14:43.182Z,9.83
2018-02-22T09:17:11.486Z,11.63
2018-02-22T09:19:39.757Z,9.37
2018-02-22T09:22:08.061Z,10.93
2018-02-22T09:24:36.323Z,11.60
2018-02-22T09:27:04.941Z,17.02
2018-02-22T09:29:33.232Z,9.83
2018-02-22T09:32:01.516Z,6.20
2018-02-22T09:34:30.092Z,8.40
2018-02-22T09:36:58.394Z,10.23
2018-02-22T09:39:26.694Z,10.43
2018-02-22T09:41:55.019Z,12.53
2018-02-22T09:44:23.279Z,6.77
2018-02-22T09:46:51.573Z,20.03
2018-02-22T09:49:19.860Z,8.20
2018-02-22T09:51:48.186Z,13.00
2018-02-22T09:54:16.495Z,11.67
2018-02-22T09:56:44.756Z,10.57
2018-02-22T09:59:13.057Z,10.10
2018-02-22T10:01:41.332Z,13.00
2018-02-22T10:04:09.661Z,13.80
2018-02-22T10:06:37.928Z,9.93
2018-02-22T10:09:06.213Z,7.43
2018-02-22T10:11:34.501Z,11.00
2018-02-22T10:14:03.111Z,7.97
2018-02-22T10:16:31.370Z,10.03
2018-02-22T10:18:59.698Z,15.53
2018-02-22T10:21:27.984Z,6.50
2018-02-22T10:23:56.284Z,6.33
2018-02-22T10:26:24.591Z,9.83
2018-02-22T10:28:52.877Z,8.90
2018-02-22T10:31:21.181Z,8.73
2018-02-22T10:33:49.541Z,8.10
2018-02-22T10:36:17.785Z,12.13
2018-02-22T10:38:46.118Z,7.27
2018-02-22T10:41:14.400Z,11.40
2018-02-22T10:43:42.681Z,8.27
2018-02-22T10:46:10.941Z,6.60
2018-02-22T10:48:39.217Z,7.83
2018-02-22T10:51:07.463Z,8.70
2018-02-22T10:53:35.776Z,5.60
2018-02-22T10:56:04.100Z,5.30
2018-02-22T10:58:32.335Z,13.27
2018-02-22T11:01:06.537Z,6.00
2018-02-22T11:03:34.790Z,9.33
2018-02-22T11:06:03.090Z,9.17
2018-02-22T11:08:31.683Z,9.47
2018-02-22T11:11:00.001Z,8.60
2018-02-22T11:13:28.385Z,7.50
2018-02-22T11:15:56.695Z,5.70
2018-02-22T11:18:24.956Z,4.47
2018-02-22T11:20:53.296Z,5.20
2018-02-22T11:23:21.632Z,6.10
2018-02-22T11:25:49.895Z,4.67
2018-02-22T11:28:18.225Z,4.07
2018-02-22T11:30:46.492Z,6.57
2018-02-22T11:33:14.799Z,14.65
2018-02-22T11:35:43.124Z,10.73
2018-02-22T11:38:11.411Z,5.05
2018-02-22T11:40:39.716Z,6.83
2018-02-22T11:43:08.059Z,4.47
2018-02-22T11:45:36.317Z,4.57
2018-02-22T11:48:05.003Z,5.20
2018-02-22T11:50:33.303Z,6.30
2018-02-22T11:53:01.571Z,5.05
2018-02-22T11:55:29.866Z,3.77
2018-02-22T11:57:58.127Z,4.23
2018-02-22T12:00:26.436Z,4.20
2018-02-22T12:02:54.723Z,6.50
2018-02-22T12:05:23.087Z,7.95
2018-02-22T12:07:51.360Z,5.93
2018-02-22T12:10:19.821Z,7.10
2018-02-22T12:12:48.116Z,6.40
2018-02-22T12:15:16.528Z,6.33
2018-02-22T12:17:44.820Z,5.97
2018-02-22T12:20:13.088Z,6.27
2018-02-22T12:22:41.399Z,3.87
2018-02-22T12:25:09.742Z,3.37
2018-02-22T12:27:37.972Z,3.60
2018-02-22T12:30:06.244Z,5.13
2018-02-22T12:32:34.822Z,7.43
2018-02-22T12:35:03.695Z,4.20
2018-02-22T12:37:31.966Z,3.27
2018-02-22T12:40:00.373Z,11.87
2018-02-22T12:42:28.712Z,5.87
2018-02-22T12:44:56.988Z,4.53
2018-02-22T12:47:25.253Z,3.30
2018-02-22T12:49:53.535Z,4.32
2018-02-22T12:52:21.798Z,2.83
2018-02-22T12:54:50.115Z,3.77
2018-02-22T12:57:18.404Z,2.73
2018-02-22T12:59:46.700Z,3.33
2018-02-22T13:02:15.039Z,6.30
2018-02-22T13:04:43.601Z,16.97
2018-02-22T13:07:11.906Z,4.60
2018-02-22T13:09:40.250Z,5.27
2018-02-22T13:12:08.984Z,15.73
2018-02-22T13:14:37.309Z,5.93
2018-02-22T13:17:05.763Z,4.10
2018-02-22T13:19:34.064Z,4.43
2018-02-22T13:22:02.484Z,4.70
2018-02-22T13:24:30.823Z,5.28
2018-02-22T13:26:59.107Z,7.77
2018-02-22T13:29:27.483Z,4.20
2018-02-22T13:31:55.720Z,5.10
2018-02-22T13:34:38.452Z,5.90
2018-02-22T13:37:18.319Z,4.75
2018-02-22T13:39:46.628Z,7.12
2018-02-22T13:42:14.900Z,10.75
2018-02-22T13:44:54.857Z,7.60
2018-02-22T13:47:23.184Z,6.90
2018-02-22T13:50:03.157Z,4.63
2018-02-22T13:52:31.484Z,6.43
2018-02-22T13:54:59.804Z,6.07
2018-02-22T13:57:28.093Z,5.10
2018-02-22T13:59:56.564Z,7.40
2018-02-22T14:02:26.618Z,4.90
2018-02-22T14:04:54.889Z,7.33
2018-02-22T14:07:23.207Z,5.20
2018-02-22T14:09:51.721Z,5.33
2018-02-22T14:12:20.032Z,7.57
2018-02-22T14:14:48.300Z,4.10
2018-02-22T14:17:16.600Z,7.30
2018-02-22T14:19:44.864Z,6.17
2018-02-22T14:22:13.199Z,7.37
2018-02-22T14:24:41.488Z,7.40
2018-02-22T14:27:09.852Z,6.80
2018-02-22T14:29:38.116Z,9.20
2018-02-22T14:32:06.720Z,7.10
2018-02-22T14:34:35.025Z,7.90
2018-02-22T14:37:04.021Z,7.15
2018-02-22T14:39:32.423Z,6.87
2018-02-22T14:42:00.717Z,9.70
2018-02-22T14:44:29.015Z,10.37
2018-02-22T14:46:57.288Z,5.67
2018-02-22T14:49:25.754Z,9.07
2018-02-22T14:51:54.035Z,12.80
2018-02-22T14:54:22.291Z,7.28
2018-02-22T14:56:50.641Z,7.27
2018-02-22T14:59:18.892Z,9.43
2018-02-22T15:01:47.544Z,12.00
2018-02-22T15:04:15.823Z,6.00
2018-02-22T15:06:44.679Z,8.00
2018-02-22T15:09:12.947Z,8.57
2018-02-22T15:11:42.205Z,7.17
2018-02-22T15:14:10.495Z,12.88
2018-02-22T15:16:38.768Z,7.20
2018-02-22T15:19:07.053Z,6.03
2018-02-22T15:21:35.346Z,8.53
2018-02-22T15:24:04.344Z,6.07
2018-02-22T15:26:32.631Z,12.30
2018-02-22T15:29:00.965Z,7.93
2018-02-22T15:31:29.270Z,5.30
2018-02-22T15:33:57.584Z,6.07
2018-02-22T15:36:25.935Z,6.50
2018-02-22T15:38:54.210Z,8.10
2018-02-22T15:41:22.491Z,9.18
2018-02-22T15:43:50.897Z,7.93
2018-02-22T15:46:19.246Z,6.25
2018-02-22T15:48:47.504Z,6.83
2018-02-22T15:51:16.432Z,7.55
2018-02-22T15:53:44.710Z,31.75
2018-02-22T15:56:13.022Z,6.82
2018-02-22T15:58:41.308Z,7.30
2018-02-22T16:01:09.630Z,5.87
2018-02-22T16:03:37.940Z,8.73
2018-02-22T16:06:06.976Z,6.97
2018-02-22T16:08:35.284Z,6.57
2018-02-22T16:11:04.242Z,26.92
2018-02-22T16:13:32.545Z,6.37
2018-02-22T16:16:00.793Z,5.93
2018-02-22T16:18:29.107Z,6.27
2018-02-22T16:20:57.434Z,8.33
2018-02-22T16:23:25.708Z,5.10
2018-02-22T16:25:54.006Z,6.03
2018-02-22T16:28:22.364Z,4.80
2018-02-22T16:30:50.639Z,8.43
2018-02-22T16:33:18.926Z,12.60
2018-02-22T16:35:47.242Z,5.45
2018-02-22T16:38:15.998Z,6.67
2018-02-22T16:40:44.304Z,5.20
2018-02-22T16:43:12.916Z,5.82
2018-02-22T16:45:41.245Z,6.00
2018-02-22T16:48:09.536Z,15.23
2018-02-22T16:50:37.841Z,4.80
2018-02-22T16:53:06.088Z,9.10
2018-02-22T16:55:34.734Z,7.23
2018-02-22T16:58:03.018Z,8.47
2018-02-22T17:00:31.322Z,5.00
2018-02-22T17:02:59.615Z,8.10
2018-02-22T17:05:27.909Z,11.40
2018-02-22T17:07:56.172Z,5.67
2018-02-22T17:10:25.118Z,6.60
2018-02-22T17:12:53.531Z,8.07
2018-02-22T17:15:21.839Z,7.00
2018-02-22T17:17:50.096Z,8.07
2018-02-22T17:20:18.363Z,8.57
2018-02-22T17:22:46.661Z,13.13
2018-02-22T17:25:15.216Z,5.43
2018-02-22T17:27:49.066Z,7.03
2018-02-22T17:30:22.961Z,6.55
2018-02-22T17:32:51.250Z,8.33
2018-02-22T17:38:34.037Z,7.93
2018-02-22T17:41:13.153Z,9.70
2018-02-22T17:43:41.432Z,7.87
2018-02-22T17:46:09.708Z,5.97
2018-02-22T17:48:38.049Z,6.67
2018-02-22T17:51:06.307Z,6.60
2018-02-22T17:53:34.678Z,9.83
2018-02-22T17:56:02.898Z,6.07
2018-02-22T17:58:31.199Z,6.20
2018-02-22T18:00:59.461Z,6.50
2018-02-22T18:03:27.731Z,6.80
2018-02-22T18:05:56.016Z,5.53
2018-02-22T18:08:24.310Z,10.73
2018-02-22T18:10:52.599Z,6.13
2018-02-22T18:13:20.923Z,5.55
2018-02-22T18:15:49.224Z,15.10
2018-02-22T18:18:17.493Z,6.90
2018-02-22T18:20:45.793Z,6.33
2018-02-22T18:23:14.220Z,7.25
2018-02-22T18:25:42.528Z,7.00
2018-02-22T18:28:10.801Z,6.03
2018-02-22T18:30:39.650Z,7.77
2018-02-22T18:33:07.962Z,8.97
2018-02-22T18:35:36.258Z,6.10
2018-02-22T18:38:04.739Z,8.82
2018-02-22T18:40:38.518Z,8.00
2018-02-22T18:43:12.457Z,11.20
2018-02-22T18:45:40.721Z,8.43
2018-02-22T18:48:09.036Z,6.50
2018-02-22T18:50:37.356Z,8.10
2018-02-22T18:53:05.623Z,6.50
2018-02-22T18:55:33.881Z,8.40
2018-02-22T18:58:02.161Z,7.97
2018-02-22T19:00:30.448Z,12.55
2018-02-22T19:02:58.725Z,10.40
2018-02-22T19:05:27.025Z,10.07
2018-02-22T19:07:55.332Z,6.77
2018-02-22T19:10:23.648Z,11.73
2018-02-22T19:12:51.904Z,8.50
2018-02-22T19:15:20.201Z,8.63
2018-02-22T19:17:48.490Z,13.00
2018-02-22T19:20:16.781Z,14.63
2018-02-22T19:22:45.068Z,10.43
2018-02-22T19:25:13.424Z,8.35
2018-02-22T19:27:41.697Z,12.35
2018-02-22T19:30:10.264Z,8.40
2018-02-22T19:32:38.580Z,10.63
2018-02-22T19:35:06.851Z,7.72
2018-02-22T19:37:35.987Z,7.33
2018-02-22T19:40:04.254Z,7.57
2018-02-22T19:42:32.550Z,7.87
2018-02-22T19:45:00.813Z,7.80
2018-02-22T19:47:29.092Z,9.30
2018-02-22T19:49:57.399Z,7.23
2018-02-22T19:52:25.668Z,10.87
2018-02-22T19:54:53.966Z,8.70
2018-02-22T19:57:22.261Z,7.77
2018-02-22T19:59:50.544Z,8.17
2018-02-22T20:02:18.807Z,8.30
2018-02-22T20:04:47.319Z,10.30
2018-02-22T20:07:15.619Z,10.65
2018-02-22T20:09:43.879Z,8.90
2018-02-22T20:12:12.162Z,9.60
2018-02-22T20:14:40.442Z,15.97
2018-02-22T20:17:08.790Z,7.45
2018-02-22T20:19:37.048Z,10.70
2018-02-22T20:22:05.356Z,6.80
2018-02-22T20:24:33.643Z,7.43
2018-02-22T20:27:03.088Z,8.90
2018-02-22T20:29:31.371Z,12.50
2018-02-22T20:31:59.666Z,8.23
2018-02-22T20:34:27.953Z,7.73
2018-02-22T20:36:56.242Z,7.50
2018-02-22T20:39:24.544Z,10.77
2018-02-22T20:41:52.831Z,10.67
2018-02-22T20:44:21.115Z,8.13
2018-02-22T20:46:49.519Z,7.00
2018-02-22T20:49:17.797Z,7.43
2018-02-22T20:51:49.065Z,8.50
2018-02-22T20:54:17.345Z,8.02
2018-02-22T20:56:45.683Z,6.93
2018-02-22T20:59:13.976Z,6.95
2018-02-22T21:01:42.261Z,7.35
2018-02-22T21:04:11.753Z,15.10
2018-02-22T21:06:40.577Z,9.10
2018-02-22T21:09:08.902Z,8.30
2018-02-22T21:11:37.284Z,12.05
2018-02-22T21:14:05.565Z,8.10
2018-02-22T21:16:33.894Z,15.10
2018-02-22T21:19:02.198Z,8.53
2018-02-22T21:21:30.526Z,10.10
2018-02-22T21:23:58.787Z,7.20
2018-02-22T21:26:27.096Z,7.70
2018-02-22T21:28:55.388Z,7.10
2018-02-22T21:31:23.648Z,11.23
2018-02-22T21:33:51.944Z,8.48
2018-02-22T21:36:20.205Z,8.32
2018-02-22T21:38:48.511Z,6.90
2018-02-22T21:41:16.815Z,6.67
2018-02-22T21:43:45.183Z,7.40
2018-02-22T21:46:13.488Z,9.45
2018-02-22T21:48:41.759Z,8.50
2018-02-22T21:51:10.043Z,9.85
2018-02-22T21:53:38.314Z,8.80
2018-02-22T21:56:06.636Z,10.33
2018-02-22T21:58:34.878Z,11.00
2018-02-22T22:01:03.166Z,8.63
2018-02-22T22:03:31.444Z,8.65
2018-02-22T22:05:59.805Z,7.20
2018-02-22T22:08:28.085Z,7.80
2018-02-22T22:10:56.366Z,9.13
2018-02-22T22:13:24.625Z,8.70
2018-02-22T22:15:52.916Z,9.63
2018-02-22T22:18:21.184Z,8.53
2018-02-22T22:20:49.496Z,9.73
2018-02-22T22:23:17.855Z,12.90
2018-02-22T22:25:46.167Z,8.37
2018-02-22T22:28:14.494Z,8.93
2018-02-22T22:30:42.776Z,9.67
2018-02-22T22:33:11.068Z,6.93
2018-02-22T22:35:39.320Z,8.13
2018-02-22T22:38:07.680Z,8.20
2018-02-22T22:40:35.932Z,7.50
2018-02-22T22:43:04.920Z,8.70
2018-02-22T22:45:33.258Z,7.70
2018-02-22T22:48:01.534Z,7.37
2018-02-22T22:50:29.786Z,9.00
2018-02-22T22:52:58.076Z,8.00
2018-02-22T22:55:26.368Z,7.27
2018-02-22T22:57:54.647Z,8.20
2018-02-22T23:00:22.921Z,9.47
2018-02-22T23:02:51.171Z,9.53
2018-02-22T23:05:19.467Z,12.13
2018-02-22T23:07:47.727Z,16.10
2018-02-22T23:10:16.031Z,11.57
2018-02-22T23:12:44.267Z,9.03
2018-02-22T23:15:12.584Z,7.93
2018-02-22T23:17:40.849Z,8.07
2018-02-22T23:20:09.103Z,12.46
2018-02-22T23:22:37.380Z,7.27
2018-02-22T23:25:05.641Z,9.30
2018-02-22T23:27:33.931Z,10.47
2018-02-22T23:30:02.207Z,12.70
2018-02-22T23:32:30.511Z,9.15
2018-02-22T23:34:58.827Z,9.10
2018-02-22T23:37:27.111Z,14.30
2018-02-22T23:39:55.375Z,9.30
2018-02-22T23:42:24.475Z,11.47
2018-02-22T23:44:52.763Z,10.47
2018-02-22T23:47:21.856Z,12.10
2018-02-22T23:49:50.136Z,12.80
2018-02-22T23:52:18.463Z,9.50
2018-02-22T23:54:46.728Z,10.90
2018-02-22T23:57:14.990Z,9.23
2018-02-22T23:59:43.296Z,11.20
